(°C)
-9°
-7°
-6°
-5°
-4°
-4°
-4°
(°C)
-15°
-14°
-12°
-11°
-11°
-11°
-11°
SSE
SSE
SSE
SSE
SSE
SSE
SSE
(km/h)
13-17
14-20
15-22
16-24
17-25
17-25
17-26
(mm)
0
0
0
0
0
0
0
(%)
0
0
0
0
0
0
0

Élévation du soleil

/ 12.2°
sun-icon
UV 0
08:48
16:34
Dernier croissant (282°)
00:00
14:41

METAR pour 55.31°N 61.5°E (USCC)

Heure Conditions Température/
Point de rosée
Vent Visibilité Météo Nuages Pression Changement Brut
MVFR -7°C / °C 160º 6kt 4900m Smoke Vertical Visibility of 0ft. 1026 No Significant change USCC 280630Z 16003MPS 4900 FU NSC M07/M12 Q1026 R27/000060 NOSIG RMK QFE749
IFR -9°C / °C 140º 6kt 4800m Smoke Vertical Visibility of 0ft. 1026 No Significant change USCC 280600Z 14003MPS 4800 FU NSC M09/M12 Q1026 R27/000060 NOSIG RMK QFE749
IFR °C / °C 100º variable 060º to 130º 4kt 4800m Smoke Vertical Visibility of 0ft. 1026 No Significant change USCC 280530Z 10002MPS 060V130 4800 FU NSC M10/M13 Q1026 R27/000060 NOSIG RMK QFE749
MVFR -9°C / °C 100º 2kt 4900m Smoke Vertical Visibility of 0ft. 1026 No Significant change USCC 280500Z 10001MPS 4900 FU NSC M09/M12 Q1026 R09/000060 NOSIG RMK QFE749
IFR °C / °C 150º 4kt 4500m Smoke Vertical Visibility of 0ft. 1026 Temporary: Visibility 2000. Mist . Smoke . RMK QFE749 USCC 280430Z 15002MPS 4500 FU NSC M10/M12 Q1026 R27/000060 TEMPO 2000 BR FU RMK QFE749
IFR -9°C / °C 180º 6kt 3900m Smoke Vertical Visibility of 0ft. 1026 Temporary: Visibility 2000. Mist . Smoke . RMK QFE749 USCC 280400Z 18003MPS 3900 FU NSC M09/M12 Q1026 R27/000060 TEMPO 2000 BR FU RMK QFE749
IFR -8°C / °C 200º 6kt 3100m Mist Smoke Vertical Visibility of 0ft. 1026 No Significant change USCC 280330Z 20003MPS 3100 BR FU NSC M08/M11 Q1026 R27/000060 NOSIG RMK QFE749
IFR -9°C / °C 190º 6kt 3800m Mist Smoke Vertical Visibility of 0ft. 1026 No Significant change USCC 280300Z 19003MPS 3800 BR FU NSC M09/M11 Q1026 R27/000060 NOSIG RMK QFE749
IFR -8°C / °C 170º 4kt 4000m Mist Smoke Vertical Visibility of 0ft. 1026 No Significant change USCC 280230Z 17002MPS 4000 BR FU NSC M08/M10 Q1026 R27/000060 NOSIG RMK QFE749
IFR -7°C / °C 180º 6kt 4200m Smoke Vertical Visibility of 0ft. 1026 No Significant change USCC 280200Z 18003MPS 4200 FU NSC M07/M10 Q1026 R27/000060 NOSIG RMK QFE749
IFR -6°C / -9°C 210º 4kt 4500m Smoke Vertical Visibility of 0ft. 1026 No Significant change USCC 280130Z 21002MPS 4500 FU NSC M06/M09 Q1026 R27/000060 NOSIG RMK QFE749
VFR -5°C / -9°C 200º 8kt >10km - Clouds and Visibility OK 1026 No Significant change USCC 280100Z 20004MPS CAVOK M05/M09 Q1026 R27/000060 NOSIG RMK QFE749
VFR -4°C / -8°C 210º 8kt >10km - Clouds and Visibility OK 1026 No Significant change USCC 280030Z 21004MPS CAVOK M04/M08 Q1026 R27/000060 NOSIG RMK QFE749
VFR -4°C / -8°C 230º 10kt >10km - Clouds and Visibility OK 1026 No Significant change USCC 280000Z 23005MPS CAVOK M04/M08 Q1026 R27/000060 NOSIG RMK QFE749
VFR -4°C / -8°C 240º 8kt >10km - Clouds and Visibility OK 1026 No Significant change USCC 272330Z 24004MPS CAVOK M04/M08 Q1026 R27/000060 NOSIG RMK QFE749
VFR -3°C / -7°C 240º 12kt >10km - Clouds and Visibility OK 1026 No Significant change USCC 272300Z 24006MPS CAVOK M03/M07 Q1026 R27/000060 NOSIG RMK QFE749
VFR -3°C / -7°C 250º 12kt >10km - Clouds and Visibility OK 1026 No Significant change USCC 272230Z 25006MPS CAVOK M03/M07 Q1026 R27/000060 NOSIG RMK QFE749
VFR -4°C / -7°C 240º 10kt >10km - Clouds and Visibility OK 1026 No Significant change USCC 272200Z 24005MPS CAVOK M04/M07 Q1026 R27/000060 NOSIG RMK QFE749
VFR -4°C / -7°C 180º 8kt >10km - Clouds and Visibility OK 1026 No Significant change USCC 272130Z 18004MPS CAVOK M04/M07 Q1026 R27/000060 NOSIG RMK QFE749
VFR -3°C / -7°C 230º 10kt >10km - Clouds and Visibility OK 1026 No Significant change USCC 272100Z 23005MPS CAVOK M03/M07 Q1026 R27/000060 NOSIG RMK QFE749
VFR -2°C / -6°C 250º 12kt >10km - Few Clouds 4000ft 1025 No Significant change USCC 272030Z 25006MPS 9999 FEW040 M02/M06 Q1025 R27/000060 NOSIG RMK QFE749
VFR -2°C / -6°C 240º 10kt >10km - Few Clouds 4000ft 1026 No Significant change USCC 272000Z 24005MPS 9999 FEW040 M02/M06 Q1026 R27/000060 NOSIG RMK QFE749
VFR -2°C / -6°C 230º 8kt >10km - Few Clouds 4000ft 1026 No Significant change USCC 271930Z 23004MPS 9999 FEW040 M02/M06 Q1026 R27/000060 NOSIG RMK QFE749
VFR -2°C / -6°C 230º 10kt >10km - Few Clouds 4000ft 1025 No Significant change USCC 271900Z 23005MPS 9999 FEW040 M02/M06 Q1025 R27/000060 NOSIG RMK QFE749

MVFR

-7°C / °C

[Plus]
Vent 160º 6kt
Visibilité 4900m
Météo Smoke
Nuages Vertical Visibility of 0ft.
Pression 1026
Changement No Significant change
Brut USCC 280630Z 16003MPS 4900 FU NSC M07/M12 Q1026 R27/000060 NOSIG RMK QFE749

IFR

-9°C / °C

[Plus]
Vent 140º 6kt
Visibilité 4800m
Météo Smoke
Nuages Vertical Visibility of 0ft.
Pression 1026
Changement No Significant change
Brut USCC 280600Z 14003MPS 4800 FU NSC M09/M12 Q1026 R27/000060 NOSIG RMK QFE749

IFR

°C / °C

[Plus]
Vent 100º variable 060º to 130º 4kt
Visibilité 4800m
Météo Smoke
Nuages Vertical Visibility of 0ft.
Pression 1026
Changement No Significant change
Brut USCC 280530Z 10002MPS 060V130 4800 FU NSC M10/M13 Q1026 R27/000060 NOSIG RMK QFE749

MVFR

-9°C / °C

[Plus]
Vent 100º 2kt
Visibilité 4900m
Météo Smoke
Nuages Vertical Visibility of 0ft.
Pression 1026
Changement No Significant change
Brut USCC 280500Z 10001MPS 4900 FU NSC M09/M12 Q1026 R09/000060 NOSIG RMK QFE749

IFR

°C / °C

[Plus]
Vent 150º 4kt
Visibilité 4500m
Météo Smoke
Nuages Vertical Visibility of 0ft.
Pression 1026
Changement Temporary: Visibility 2000. Mist . Smoke . RMK QFE749
Brut USCC 280430Z 15002MPS 4500 FU NSC M10/M12 Q1026 R27/000060 TEMPO 2000 BR FU RMK QFE749

IFR

-9°C / °C

[Plus]
Vent 180º 6kt
Visibilité 3900m
Météo Smoke
Nuages Vertical Visibility of 0ft.
Pression 1026
Changement Temporary: Visibility 2000. Mist . Smoke . RMK QFE749
Brut USCC 280400Z 18003MPS 3900 FU NSC M09/M12 Q1026 R27/000060 TEMPO 2000 BR FU RMK QFE749

IFR

-8°C / °C

[Plus]
Vent 200º 6kt
Visibilité 3100m
Météo Mist Smoke
Nuages Vertical Visibility of 0ft.
Pression 1026
Changement No Significant change
Brut USCC 280330Z 20003MPS 3100 BR FU NSC M08/M11 Q1026 R27/000060 NOSIG RMK QFE749

IFR

-9°C / °C

[Plus]
Vent 190º 6kt
Visibilité 3800m
Météo Mist Smoke
Nuages Vertical Visibility of 0ft.
Pression 1026
Changement No Significant change
Brut USCC 280300Z 19003MPS 3800 BR FU NSC M09/M11 Q1026 R27/000060 NOSIG RMK QFE749

IFR

-8°C / °C

[Plus]
Vent 170º 4kt
Visibilité 4000m
Météo Mist Smoke
Nuages Vertical Visibility of 0ft.
Pression 1026
Changement No Significant change
Brut USCC 280230Z 17002MPS 4000 BR FU NSC M08/M10 Q1026 R27/000060 NOSIG RMK QFE749

IFR

-7°C / °C

[Plus]
Vent 180º 6kt
Visibilité 4200m
Météo Smoke
Nuages Vertical Visibility of 0ft.
Pression 1026
Changement No Significant change
Brut USCC 280200Z 18003MPS 4200 FU NSC M07/M10 Q1026 R27/000060 NOSIG RMK QFE749

IFR

-6°C / -9°C

[Plus]
Vent 210º 4kt
Visibilité 4500m
Météo Smoke
Nuages Vertical Visibility of 0ft.
Pression 1026
Changement No Significant change
Brut USCC 280130Z 21002MPS 4500 FU NSC M06/M09 Q1026 R27/000060 NOSIG RMK QFE749

VFR

-5°C / -9°C

[Plus]
Vent 200º 8kt
Visibilité >10km
Météo -
Nuages Clouds and Visibility OK
Pression 1026
Changement No Significant change
Brut USCC 280100Z 20004MPS CAVOK M05/M09 Q1026 R27/000060 NOSIG RMK QFE749

VFR

-4°C / -8°C

[Plus]
Vent 210º 8kt
Visibilité >10km
Météo -
Nuages Clouds and Visibility OK
Pression 1026
Changement No Significant change
Brut USCC 280030Z 21004MPS CAVOK M04/M08 Q1026 R27/000060 NOSIG RMK QFE749

VFR

-4°C / -8°C

[Plus]
Vent 230º 10kt
Visibilité >10km
Météo -
Nuages Clouds and Visibility OK
Pression 1026
Changement No Significant change
Brut USCC 280000Z 23005MPS CAVOK M04/M08 Q1026 R27/000060 NOSIG RMK QFE749

VFR

-4°C / -8°C

[Plus]
Vent 240º 8kt
Visibilité >10km
Météo -
Nuages Clouds and Visibility OK
Pression 1026
Changement No Significant change
Brut USCC 272330Z 24004MPS CAVOK M04/M08 Q1026 R27/000060 NOSIG RMK QFE749

VFR

-3°C / -7°C

[Plus]
Vent 240º 12kt
Visibilité >10km
Météo -
Nuages Clouds and Visibility OK
Pression 1026
Changement No Significant change
Brut USCC 272300Z 24006MPS CAVOK M03/M07 Q1026 R27/000060 NOSIG RMK QFE749

VFR

-3°C / -7°C

[Plus]
Vent 250º 12kt
Visibilité >10km
Météo -
Nuages Clouds and Visibility OK
Pression 1026
Changement No Significant change
Brut USCC 272230Z 25006MPS CAVOK M03/M07 Q1026 R27/000060 NOSIG RMK QFE749

VFR

-4°C / -7°C

[Plus]
Vent 240º 10kt
Visibilité >10km
Météo -
Nuages Clouds and Visibility OK
Pression 1026
Changement No Significant change
Brut USCC 272200Z 24005MPS CAVOK M04/M07 Q1026 R27/000060 NOSIG RMK QFE749

VFR

-4°C / -7°C

[Plus]
Vent 180º 8kt
Visibilité >10km
Météo -
Nuages Clouds and Visibility OK
Pression 1026
Changement No Significant change
Brut USCC 272130Z 18004MPS CAVOK M04/M07 Q1026 R27/000060 NOSIG RMK QFE749

VFR

-3°C / -7°C

[Plus]
Vent 230º 10kt
Visibilité >10km
Météo -
Nuages Clouds and Visibility OK
Pression 1026
Changement No Significant change
Brut USCC 272100Z 23005MPS CAVOK M03/M07 Q1026 R27/000060 NOSIG RMK QFE749

VFR

-2°C / -6°C

[Plus]
Vent 250º 12kt
Visibilité >10km
Météo -
Nuages Few Clouds 4000ft
Pression 1025
Changement No Significant change
Brut USCC 272030Z 25006MPS 9999 FEW040 M02/M06 Q1025 R27/000060 NOSIG RMK QFE749

VFR

-2°C / -6°C

[Plus]
Vent 240º 10kt
Visibilité >10km
Météo -
Nuages Few Clouds 4000ft
Pression 1026
Changement No Significant change
Brut USCC 272000Z 24005MPS 9999 FEW040 M02/M06 Q1026 R27/000060 NOSIG RMK QFE749

VFR

-2°C / -6°C

[Plus]
Vent 230º 8kt
Visibilité >10km
Météo -
Nuages Few Clouds 4000ft
Pression 1026
Changement No Significant change
Brut USCC 271930Z 23004MPS 9999 FEW040 M02/M06 Q1026 R27/000060 NOSIG RMK QFE749

VFR

-2°C / -6°C

[Plus]
Vent 230º 10kt
Visibilité >10km
Météo -
Nuages Few Clouds 4000ft
Pression 1025
Changement No Significant change
Brut USCC 271900Z 23005MPS 9999 FEW040 M02/M06 Q1025 R27/000060 NOSIG RMK QFE749

TAF pour 55.31°N 61.5°E (USCC)

From till


From till Wind 190º 6kt. Gust 25kt. Visibility 6000m. Scattered Clouds 4000ft.

Brut: TAF USCC 280500Z 2806/2906 19003G13MPS 6000 SCT040

Les images satellites et les pluies actuelles pour 55.31°N 61.5°E

Le marqueur est placé sur 55.31°N 61.5°E. [Plus]

L'image satellite en temps réel combine la lumière visible pendant la journée et le rayonnement infrarouge pendant la nuit. La nuit, l'image n'est pas sombre car le rayonnement infrarouge permet de détecter les différences de température. Malheureusement, les nuages bas et le brouillard sont difficiles à distinguer des températures au sol et peuvent donc être presque invisibles pendant la nuit. Les images des satellites Météosat pour l'Europe sont mises à jour en temps réel toutes les 5 minutes. Les images GOES-16/GOES-17 (Amérique du Nord et du Sud) et Himawari (Asie) sont mises à jour toutes les 10 minutes.

Copyright 2021 EUMETSAT / meteoblue. / Copyright 2021 meteoblue

Radar et prévision de précipitation à court terme pour 55.31°N 61.5°E

Bruine
Légère
Modéré
Fort
Très fort
Grêle

Le marqueur est placé sur 55.31°N 61.5°E. Cette animation montre le Radar des précipitations pour les dernières heures, ainsi qu'une 1h prévision. La bruine ou les légères chutes de neiges peuvent ne pas être détectées par le radar. L'intensité des précipitations est visible avec un code couleur allant du bleu clair au violet foncé et orange.